Onalaska, Texas
Current Conditions -  °F | °C
As of 3:53 PM on Thursday 18 Dec 2014 (Local Time) from KUTS Reporting Station
Overcast Overcast  
Wind Chill: 62°   Ceiling: 1400
Heat Index: 62°   Visibility: 10mi
Dew Point: 56°   Wind: 3mph
Humidity: 80%   Direction: 20°NNE
Pressure: 30.06"   Gusts: NA
Location:  30.8°N, 95.11°W
Report Text: KUTS 182153Z AUTO 02003KT 10SM OVC014 17/13 A3006 RMK AO2 SLP178 T01670133
Loading
Personal Weather Stations






























Interactive Weather Map New forecast layout! Learn more

10-Day Weather Forecast

Advertisements
Track Severe Weather on mobile